Time;durP1;ratioP1;P1;durP2;ratioP2;P2;SDS_P1;SDS_P2;PMS_P1;PMS_P2;Temp;Humidity;BMP_temperature;BMP_pressure;BME280_temperature;BME280_humidity;BME280_pressure;Samples;Min_cycle;Max_cycle;Signal;HPM_P1;HPM_P2
2021/09/04 00:00:28;;;;;;;31.05;21.48;;;15.50;94.00;;;;;;4932131;29;20032;-77
2021/09/04 00:02:54;;;;;;;35.70;22.10;;;15.40;94.10;;;;;;4900458;29;20041;-76
2021/09/04 00:05:19;;;;;;;34.78;22.35;;;15.40;94.10;;;;;;4916327;29;20436;-79
2021/09/04 00:07:45;;;;;;;38.33;22.10;;;15.30;94.10;;;;;;4900473;29;20464;-77
2021/09/04 00:10:11;;;;;;;35.53;23.23;;;15.30;94.20;;;;;;4916798;29;20500;-75
2021/09/04 00:12:37;;;;;;;39.58;23.33;;;15.20;94.30;;;;;;4932356;29;20033;-78
2021/09/04 00:15:03;;;;;;;36.30;22.05;;;15.20;94.40;;;;;;4917279;29;20107;-77
2021/09/04 00:17:29;;;;;;;35.83;22.73;;;15.10;94.40;;;;;;4917670;29;20070;-76
2021/09/04 00:19:55;;;;;;;35.33;23.67;;;15.10;94.50;;;;;;4916081;29;20024;-77
2021/09/04 00:22:21;;;;;;;34.85;24.02;;;15.10;94.60;;;;;;4918259;29;20032;-77
2021/09/04 00:24:46;;;;;;;32.88;23.13;;;15.00;94.70;;;;;;4888245;29;20036;-77
2021/09/04 00:27:12;;;;;;;40.78;25.63;;;15.00;94.80;;;;;;4872173;29;20132;-79
2021/09/04 00:29:38;;;;;;;39.28;24.83;;;14.90;94.90;;;;;;4917986;29;20036;-78
2021/09/04 00:32:04;;;;;;;40.92;24.52;;;14.90;95.00;;;;;;4932408;29;20028;-76
2021/09/04 00:34:30;;;;;;;38.35;24.98;;;14.80;95.00;;;;;;4916221;29;20035;-76
2021/09/04 00:36:56;;;;;;;35.65;23.63;;;14.80;95.00;;;;;;4917436;29;20036;-76
2021/09/04 00:39:21;;;;;;;41.10;24.38;;;14.80;95.10;;;;;;4931878;29;20483;-78
2021/09/04 00:41:47;;;;;;;39.42;24.67;;;14.80;95.20;;;;;;4900381;29;20042;-76
2021/09/04 00:44:15;;;;;;;39.95;24.83;;;14.80;95.20;;;;;;4900515;29;20039;-76
2021/09/04 00:46:41;;;;;;;42.00;24.30;;;14.70;95.20;;;;;;4918104;29;20115;-77
2021/09/04 00:49:07;;;;;;;39.05;24.55;;;14.70;95.30;;;;;;4917464;29;20040;-78
2021/09/04 00:51:33;;;;;;;43.60;25.83;;;14.70;95.30;;;;;;4900550;29;20036;-77
2021/09/04 00:53:59;;;;;;;42.92;27.73;;;14.70;95.40;;;;;;4901913;29;20079;-78
2021/09/04 00:56:25;;;;;;;38.05;26.27;;;14.60;95.40;;;;;;4904029;29;20385;-77
2021/09/04 00:58:51;;;;;;;42.28;27.83;;;14.70;95.50;;;;;;4920131;29;20127;-78
2021/09/04 01:01:17;;;;;;;41.65;27.45;;;14.60;95.40;;;;;;4904021;29;20079;-77
2021/09/04 01:03:42;;;;;;;44.95;26.33;;;14.70;95.50;;;;;;4889066;29;20032;-77
2021/09/04 01:06:11;;;;;;;40.38;26.20;;;14.60;95.50;;;;;;4919879;29;20063;-77
2021/09/04 01:08:37;;;;;;;41.67;26.45;;;14.60;95.50;;;;;;4935971;29;20207;-77
2021/09/04 01:11:03;;;;;;;44.28;27.83;;;14.60;95.50;;;;;;4920624;29;20070;-77
2021/09/04 01:13:29;;;;;;;45.78;26.55;;;14.60;95.50;;;;;;4919935;29;20065;-78
2021/09/04 01:15:54;;;;;;;41.53;26.40;;;14.60;95.50;;;;;;4903759;29;20043;-79
2021/09/04 01:18:22;;;;;;;43.67;28.77;;;14.60;95.60;;;;;;4904381;29;20110;-77
2021/09/04 01:20:48;;;;;;;44.42;27.40;;;14.50;95.60;;;;;;4935945;29;20024;-78
2021/09/04 01:23:14;;;;;;;46.45;28.55;;;14.50;95.60;;;;;;4919896;29;20119;-79
2021/09/04 01:25:43;;;;;;;46.25;28.80;;;14.50;95.70;;;;;;4920231;29;20036;-80
2021/09/04 01:28:09;;;;;;;45.38;28.95;;;14.40;95.70;;;;;;4904444;29;20032;-77
2021/09/04 01:30:35;;;;;;;48.45;29.35;;;14.40;95.80;;;;;;4935501;29;20039;-77
2021/09/04 01:33:01;;;;;;;48.88;28.98;;;14.40;95.90;;;;;;4888567;29;20387;-79
2021/09/04 01:35:27;;;;;;;50.55;30.95;;;14.30;96.00;;;;;;4935240;29;20035;-77
2021/09/04 01:37:53;;;;;;;51.58;30.65;;;14.30;96.10;;;;;;4920260;29;20024;-78
2021/09/04 01:40:19;;;;;;;53.42;29.50;;;14.30;96.10;;;;;;4887871;29;20032;-77
2021/09/04 01:42:46;;;;;;;45.85;29.83;;;14.20;96.20;;;;;;4903849;29;20044;-78
2021/09/04 01:45:13;;;;;;;48.30;29.98;;;14.20;96.30;;;;;;4872950;29;20032;-77
2021/09/04 01:47:39;;;;;;;48.88;31.27;;;14.10;96.30;;;;;;4888256;29;20139;-75
2021/09/04 01:50:13;;;;;;;48.72;29.77;;;14.10;96.30;;;;;;4919650;29;20139;-77
2021/09/04 01:52:40;;;;;;;55.17;31.85;;;14.10;96.30;;;;;;4874790;29;20032;-78
2021/09/04 01:55:07;;;;;;;54.45;31.80;;;14.10;96.40;;;;;;4920647;29;20075;-77
2021/09/04 01:57:33;;;;;;;47.97;30.30;;;14.00;96.40;;;;;;4887812;29;20032;-77
2021/09/04 01:59:58;;;;;;;54.85;32.65;;;14.00;96.50;;;;;;4888030;29;20035;-77
2021/09/04 02:02:24;;;;;;;50.80;31.67;;;14.10;96.50;;;;;;4920166;29;20036;-77
2021/09/04 02:04:50;;;;;;;48.67;31.10;;;14.00;96.50;;;;;;4887258;29;20119;-77
2021/09/04 02:07:15;;;;;;;53.05;32.92;;;14.00;96.50;;;;;;4888491;29;20063;-76
2021/09/04 02:09:41;;;;;;;54.35;32.45;;;14.00;96.50;;;;;;4902842;29;20032;-77
2021/09/04 02:12:07;;;;;;;49.33;31.30;;;14.10;96.60;;;;;;4903055;29;20544;-78
2021/09/04 02:14:33;;;;;;;52.28;32.35;;;14.00;96.60;;;;;;4872442;29;20032;-76
2021/09/04 02:17:00;;;;;;;48.33;31.27;;;14.00;96.60;;;;;;4903322;29;20047;-76
2021/09/04 02:19:25;;;;;;;48.00;31.27;;;14.00;96.60;;;;;;4918762;29;20028;-76
2021/09/04 02:21:51;;;;;;;54.95;33.28;;;14.00;96.60;;;;;;4902795;29;20126;-77
2021/09/04 02:24:17;;;;;;;55.17;34.17;;;14.00;96.70;;;;;;4902728;29;20028;-77
2021/09/04 02:26:42;;;;;;;54.00;31.92;;;13.90;96.70;;;;;;4918524;29;20484;-77
2021/09/04 02:29:08;;;;;;;56.50;33.40;;;13.90;96.80;;;;;;4887219;29;20480;-79
2021/09/04 02:31:34;;;;;;;52.13;33.45;;;13.80;96.80;;;;;;4902573;29;20040;-77
2021/09/04 02:34:00;;;;;;;58.00;34.72;;;13.80;96.80;;;;;;4902919;29;20388;-78
2021/09/04 02:36:25;;;;;;;53.10;32.05;;;13.80;96.90;;;;;;4887243;29;20381;-78
2021/09/04 02:38:51;;;;;;;60.60;35.65;;;13.80;96.90;;;;;;4934622;29;20167;-77
2021/09/04 02:41:17;;;;;;;58.70;35.50;;;13.80;96.90;;;;;;4918740;29;20082;-78
2021/09/04 02:43:43;;;;;;;60.80;37.10;;;13.80;97.00;;;;;;4902903;29;20052;-77
2021/09/04 02:46:10;;;;;;;56.50;34.05;;;13.70;97.00;;;;;;4934136;29;20032;-79
2021/09/04 02:48:36;;;;;;;61.60;36.50;;;13.70;97.00;;;;;;4902876;29;20060;-76
2021/09/04 02:51:02;;;;;;;55.80;33.42;;;13.70;97.00;;;;;;4936423;29;20385;-77
2021/09/04 02:53:28;;;;;;;60.10;35.08;;;13.70;97.10;;;;;;4907721;29;20039;-78
2021/09/04 02:55:53;;;;;;;56.00;33.85;;;13.70;97.10;;;;;;4925992;29;20032;-76
2021/09/04 02:58:19;;;;;;;63.95;35.70;;;13.70;97.10;;;;;;4928546;29;20050;-77
2021/09/04 03:00:45;;;;;;;65.43;36.42;;;13.70;97.10;;;;;;4912992;29;20032;-77
2021/09/04 03:03:12;;;;;;;58.55;35.67;;;13.60;97.10;;;;;;4913062;29;20036;-79
2021/09/04 03:05:38;;;;;;;63.47;36.92;;;13.60;97.20;;;;;;4929007;29;20043;-77
2021/09/04 03:08:04;;;;;;;59.35;34.85;;;13.60;97.20;;;;;;4914309;29;20040;-78
2021/09/04 03:10:30;;;;;;;59.95;37.22;;;13.70;97.20;;;;;;4913438;29;20028;-77
2021/09/04 03:12:57;;;;;;;67.03;37.88;;;13.70;97.20;;;;;;4945610;29;20128;-77
2021/09/04 03:15:22;;;;;;;62.88;35.58;;;13.70;97.20;;;;;;4930979;29;20031;-76
2021/09/04 03:17:48;;;;;;;67.32;38.70;;;13.70;97.20;;;;;;4913806;29;20024;-76
2021/09/04 03:20:14;;;;;;;61.88;36.78;;;13.80;97.20;;;;;;4914882;29;20033;-79
2021/09/04 03:22:41;;;;;;;70.93;38.65;;;13.70;97.20;;;;;;4898422;29;20028;-78
2021/09/04 03:25:07;;;;;;;67.75;38.92;;;13.70;97.20;;;;;;4909090;29;20111;-77
2021/09/04 03:27:33;;;;;;;63.90;37.17;;;13.70;97.20;;;;;;4907809;29;20040;-77
2021/09/04 03:29:59;;;;;;;67.00;38.10;;;13.70;97.20;;;;;;4892500;29;20036;-76
2021/09/04 03:32:25;;;;;;;60.92;37.13;;;13.70;97.20;;;;;;4907734;29;20065;-77
2021/09/04 03:34:52;;;;;;;63.05;38.00;;;13.70;97.20;;;;;;4934341;29;20032;-79
2021/09/04 03:37:18;;;;;;;66.75;39.45;;;13.80;97.20;;;;;;4902378;29;20040;-80
2021/09/04 03:39:44;;;;;;;74.20;40.42;;;13.80;97.20;;;;;;4902356;29;20036;-77
2021/09/04 03:42:10;;;;;;;67.20;38.50;;;13.80;97.20;;;;;;4902811;29;20035;-77
2021/09/04 03:44:37;;;;;;;71.05;40.45;;;13.90;97.20;;;;;;4892580;29;20043;-78
2021/09/04 03:47:03;;;;;;;76.78;41.30;;;13.90;97.20;;;;;;4940604;29;20036;-77
2021/09/04 03:49:29;;;;;;;79.35;43.03;;;13.90;97.20;;;;;;4904079;29;20142;-77
2021/09/04 03:51:55;;;;;;;73.45;41.25;;;13.90;97.20;;;;;;4933957;29;20575;-77
2021/09/04 03:54:21;;;;;;;82.20;44.20;;;13.90;97.30;;;;;;4917921;29;20168;-78
2021/09/04 03:56:46;;;;;;;87.10;44.17;;;13.90;97.30;;;;;;4902565;29;20472;-78
2021/09/04 03:59:12;;;;;;;96.35;47.50;;;14.00;97.30;;;;;;4870451;29;20031;-78
2021/09/04 04:01:38;;;;;;;94.00;48.75;;;14.10;97.30;;;;;;4886361;29;20039;-77
2021/09/04 04:04:04;;;;;;;91.10;45.75;;;14.10;97.20;;;;;;4933166;29;20043;-77
2021/09/04 04:06:30;;;;;;;87.78;47.47;;;14.10;97.20;;;;;;4918208;29;20040;-77
2021/09/04 04:08:56;;;;;;;95.15;48.90;;;14.10;97.20;;;;;;4900796;29;20092;-77
2021/09/04 04:11:22;;;;;;;118.72;53.33;;;14.10;97.20;;;;;;4916349;29;20075;-79
2021/09/04 04:13:48;;;;;;;107.68;50.30;;;14.00;97.20;;;;;;4900405;29;20043;-78
2021/09/04 04:16:14;;;;;;;122.15;55.08;;;14.00;97.20;;;;;;4885306;29;20391;-76
2021/09/04 04:18:40;;;;;;;130.88;54.92;;;14.10;97.30;;;;;;4885619;29;20463;-77
2021/09/04 04:21:05;;;;;;;140.18;58.97;;;14.00;97.30;;;;;;4884935;29;20055;-76
2021/09/04 04:23:31;;;;;;;124.15;56.15;;;14.10;97.30;;;;;;4900854;29;20067;-77
2021/09/04 04:25:57;;;;;;;133.02;57.95;;;14.10;97.30;;;;;;4916980;29;20114;-78
2021/09/04 04:28:23;;;;;;;136.40;59.47;;;14.10;97.30;;;;;;4900048;29;20025;-80
2021/09/04 04:30:49;;;;;;;128.75;56.72;;;14.10;97.30;;;;;;4900579;29;20118;-76
2021/09/04 04:33:15;;;;;;;130.20;56.92;;;14.20;97.20;;;;;;4900296;29;20388;-77
2021/09/04 04:35:40;;;;;;;157.73;65.90;;;14.20;97.20;;;;;;4884923;29;20481;-77
2021/09/04 04:38:06;;;;;;;155.20;62.67;;;14.10;97.20;;;;;;4869439;29;20039;-76
2021/09/04 04:40:32;;;;;;;146.95;64.00;;;14.10;97.20;;;;;;4900547;29;20220;-76
2021/09/04 04:42:57;;;;;;;150.70;64.80;;;14.10;97.30;;;;;;4869170;29;20032;-78
2021/09/04 04:45:23;;;;;;;129.77;57.60;;;14.20;97.30;;;;;;4916870;29;20067;-78
2021/09/04 04:47:49;;;;;;;148.57;62.60;;;14.20;97.20;;;;;;4900152;29;20103;-78
2021/09/04 04:50:18;;;;;;;153.48;64.95;;;14.20;97.20;;;;;;4853559;29;20426;-76
2021/09/04 04:52:45;;;;;;;156.23;62.05;;;14.30;97.20;;;;;;4881335;29;20056;-77
2021/09/04 04:55:11;;;;;;;146.80;62.63;;;14.30;97.10;;;;;;4896686;29;20029;-76
2021/09/04 04:57:36;;;;;;;156.30;63.90;;;14.20;97.10;;;;;;4880708;29;20097;-76
2021/09/04 05:00:04;;;;;;;182.40;70.05;;;14.20;97.10;;;;;;4880958;29;20028;-76
2021/09/04 05:02:30;;;;;;;170.48;68.38;;;14.10;97.10;;;;;;4865513;29;20127;-79
2021/09/04 05:04:55;;;;;;;160.10;64.05;;;14.10;97.10;;;;;;4898157;29;20117;-77
2021/09/04 05:07:21;;;;;;;175.00;69.90;;;14.20;97.20;;;;;;4865437;29;20131;-77
2021/09/04 05:09:47;;;;;;;191.30;71.53;;;14.10;97.10;;;;;;4898007;29;20036;-77
2021/09/04 05:12:12;;;;;;;180.45;69.00;;;14.10;97.20;;;;;;4896489;29;20177;-77
2021/09/04 05:14:38;;;;;;;176.00;67.93;;;14.00;97.20;;;;;;4880984;29;20437;-77
2021/09/04 05:17:04;;;;;;;171.63;67.25;;;14.00;97.20;;;;;;4866110;29;20377;-76
2021/09/04 05:19:30;;;;;;;183.88;67.95;;;13.90;97.30;;;;;;4880808;29;20192;-79
2021/09/04 05:21:57;;;;;;;175.55;67.07;;;13.90;97.40;;;;;;4865774;29;20449;-76
2021/09/04 05:24:23;;;;;;;178.88;67.35;;;13.80;97.40;;;;;;4898112;29;20435;-76
2021/09/04 05:26:48;;;;;;;192.98;70.93;;;13.80;97.50;;;;;;4881051;29;20037;-76
2021/09/04 05:29:14;;;;;;;198.15;69.97;;;13.70;97.60;;;;;;4881268;29;20040;-76
2021/09/04 05:31:40;;;;;;;176.77;67.85;;;13.70;97.60;;;;;;4881021;29;20037;-76
2021/09/04 05:34:06;;;;;;;204.25;72.85;;;13.70;97.70;;;;;;4880741;29;20446;-76
2021/09/04 05:36:31;;;;;;;199.73;75.15;;;13.70;97.70;;;;;;4912111;29;20029;-78
2021/09/04 05:38:57;;;;;;;192.82;71.05;;;13.70;97.70;;;;;;4880693;29;20035;-78
2021/09/04 05:41:23;;;;;;;177.80;69.60;;;13.80;97.70;;;;;;4900223;29;20032;-76
2021/09/04 05:43:48;;;;;;;178.88;69.90;;;13.70;97.70;;;;;;4868839;29;20064;-77
2021/09/04 05:46:14;;;;;;;184.25;71.28;;;13.80;97.70;;;;;;4884199;29;20105;-77
2021/09/04 05:48:40;;;;;;;163.98;66.43;;;13.80;97.70;;;;;;4916042;29;20049;-78
2021/09/04 05:51:06;;;;;;;168.88;67.80;;;13.90;97.70;;;;;;4916192;29;20488;-77
2021/09/04 05:53:31;;;;;;;157.55;61.55;;;13.80;97.60;;;;;;4868680;29;20029;-78
2021/09/04 05:55:57;;;;;;;148.10;60.85;;;13.90;97.60;;;;;;4868729;29;20116;-77
2021/09/04 05:58:24;;;;;;;168.90;63.42;;;13.80;97.40;;;;;;4884645;29;20442;-77
2021/09/04 06:00:51;;;;;;;166.82;64.80;;;13.80;97.50;;;;;;4900773;29;20025;-78
2021/09/04 06:03:16;;;;;;;146.25;59.53;;;13.80;97.50;;;;;;4884175;29;20033;-78
2021/09/04 06:05:42;;;;;;;169.52;60.17;;;13.80;97.50;;;;;;4883716;29;20123;-78
2021/09/04 06:08:07;;;;;;;129.98;55.15;;;13.90;97.40;;;;;;4883834;29;20432;-79
2021/09/04 06:10:33;;;;;;;132.23;55.95;;;13.80;97.40;;;;;;4868413;29;20033;-81
2021/09/04 06:12:59;;;;;;;146.32;58.42;;;13.80;97.30;;;;;;4915079;29;20031;-78
2021/09/04 06:15:24;;;;;;;129.27;52.35;;;13.80;97.30;;;;;;4900822;29;20040;-78
2021/09/04 06:17:50;;;;;;;133.80;54.35;;;13.70;97.40;;;;;;4868805;29;20472;-79
2021/09/04 06:20:17;;;;;;;136.15;54.05;;;13.80;97.50;;;;;;4868866;29;20039;-79
2021/09/04 06:22:42;;;;;;;130.20;52.40;;;13.70;97.40;;;;;;4883391;29;20031;-79
2021/09/04 06:25:09;;;;;;;124.07;54.63;;;13.70;97.50;;;;;;4883549;29;20037;-79
2021/09/04 06:27:34;;;;;;;141.90;55.88;;;13.80;97.50;;;;;;4900558;29;20037;-78
2021/09/04 06:30:00;;;;;;;125.63;51.50;;;13.80;97.50;;;;;;4868513;29;20098;-80
2021/09/04 06:32:27;;;;;;;156.95;58.80;;;13.70;97.50;;;;;;4868273;29;20036;-79
2021/09/04 06:34:54;;;;;;;139.68;56.05;;;13.80;97.60;;;;;;4883452;29;20025;-78
2021/09/04 06:37:19;;;;;;;135.00;55.70;;;13.80;97.60;;;;;;4885547;29;20043;-78
2021/09/04 06:39:45;;;;;;;125.13;52.50;;;13.80;97.70;;;;;;4868470;29;20028;-78
2021/09/04 06:42:11;;;;;;;135.07;53.80;;;13.90;97.70;;;;;;4883441;29;20037;-79
2021/09/04 06:44:36;;;;;;;125.05;54.00;;;13.90;97.60;;;;;;4883265;29;20530;-79
2021/09/04 06:47:02;;;;;;;126.18;52.78;;;13.90;97.60;;;;;;4867552;29;20060;-79
2021/09/04 06:49:28;;;;;;;136.32;56.50;;;14.00;97.60;;;;;;4909158;29;20095;-78
2021/09/04 06:51:54;;;;;;;124.38;52.33;;;14.00;97.50;;;;;;4901943;29;20044;-76
2021/09/04 06:54:23;;;;;;;123.65;53.08;;;14.00;97.40;;;;;;4901920;29;20055;-76
2021/09/04 06:56:50;;;;;;;143.35;54.88;;;14.00;97.50;;;;;;4886520;29;20059;-77
2021/09/04 06:59:15;;;;;;;142.05;56.30;;;14.00;97.40;;;;;;4918046;29;20029;-79
2021/09/04 07:01:41;;;;;;;120.25;53.72;;;13.90;97.30;;;;;;4886048;29;20142;-77
2021/09/04 07:04:06;;;;;;;134.77;54.55;;;13.90;97.40;;;;;;4901668;29;20029;-77
2021/09/04 07:06:32;;;;;;;138.93;56.92;;;13.90;97.40;;;;;;4901764;29;20067;-76
2021/09/04 07:08:58;;;;;;;145.98;57.40;;;13.90;97.50;;;;;;4901327;29;20043;-78
2021/09/04 07:11:23;;;;;;;153.88;57.78;;;13.90;97.40;;;;;;4917209;29;20039;-77
2021/09/04 07:13:49;;;;;;;126.57;53.28;;;13.90;97.40;;;;;;4885593;29;20047;-78
2021/09/04 07:16:14;;;;;;;130.18;52.95;;;13.90;97.50;;;;;;4885465;29;20059;-77
2021/09/04 07:18:40;;;;;;;130.65;55.25;;;13.90;97.70;;;;;;4917965;29;20030;-76
2021/09/04 07:21:06;;;;;;;135.13;56.13;;;13.90;97.40;;;;;;4885494;29;20059;-76
2021/09/04 07:23:31;;;;;;;125.45;52.25;;;14.00;97.50;;;;;;4885589;29;20036;-77
2021/09/04 07:25:57;;;;;;;127.05;54.13;;;13.90;97.40;;;;;;4900806;29;20047;-78
2021/09/04 07:28:23;;;;;;;139.35;57.25;;;14.00;97.50;;;;;;4918101;29;20036;-77
2021/09/04 07:30:48;;;;;;;143.70;59.53;;;14.00;97.50;;;;;;4885260;29;20445;-81
2021/09/04 07:33:15;;;;;;;137.15;57.13;;;14.00;97.50;;;;;;4885621;29;20063;-80
2021/09/04 07:35:40;;;;;;;140.30;57.42;;;14.10;97.50;;;;;;4917964;29;20385;-80
2021/09/04 07:38:06;;;;;;;131.95;55.95;;;14.10;97.40;;;;;;4901058;29;20115;-78
2021/09/04 07:40:32;;;;;;;130.05;56.75;;;14.10;97.50;;;;;;4885623;29;20025;-78
2021/09/04 07:42:58;;;;;;;115.10;52.92;;;14.30;97.50;;;;;;4916382;29;20039;-79
2021/09/04 07:45:24;;;;;;;125.75;53.63;;;14.30;97.40;;;;;;4918130;29;20109;-78
2021/09/04 07:47:50;;;;;;;109.50;51.25;;;14.40;97.40;;;;;;4900731;29;20131;-79
2021/09/04 07:50:17;;;;;;;100.30;49.42;;;14.40;97.20;;;;;;4900567;29;20075;-79
2021/09/04 07:52:43;;;;;;;120.68;52.80;;;14.40;97.10;;;;;;4917520;29;20039;-79
2021/09/04 07:55:08;;;;;;;102.53;47.92;;;14.40;97.10;;;;;;4931501;29;20080;-77
2021/09/04 07:57:34;;;;;;;103.10;48.03;;;14.40;97.10;;;;;;4900172;29;20471;-78
2021/09/04 08:00:00;;;;;;;102.45;48.70;;;14.40;97.20;;;;;;4884721;29;20028;-79
2021/09/04 08:02:25;;;;;;;96.40;47.28;;;14.40;97.10;;;;;;4917236;29;20036;-80
2021/09/04 08:04:51;;;;;;;102.43;48.97;;;14.30;97.00;;;;;;4870264;29;20060;-78
2021/09/04 08:07:17;;;;;;;108.95;50.97;;;14.30;97.10;;;;;;4885320;29;20040;-78
2021/09/04 08:09:42;;;;;;;113.75;52.80;;;14.40;97.20;;;;;;4886297;29;20458;-81
2021/09/04 08:12:08;;;;;;;129.73;53.45;;;14.20;96.80;;;;;;4916633;29;20036;-79
2021/09/04 08:14:34;;;;;;;108.45;49.80;;;14.20;96.80;;;;;;4900689;29;20119;-80
2021/09/04 08:16:59;;;;;;;101.65;46.50;;;14.10;96.90;;;;;;4870048;29;20043;-80
2021/09/04 08:19:25;;;;;;;104.65;49.92;;;14.20;96.90;;;;;;4900794;29;20040;-79
2021/09/04 08:21:51;;;;;;;101.47;49.17;;;14.20;96.90;;;;;;4900746;29;20054;-79
2021/09/04 08:24:17;;;;;;;100.18;49.85;;;14.20;96.70;;;;;;4917283;29;20066;-80
2021/09/04 08:26:43;;;;;;;101.55;49.35;;;14.20;96.70;;;;;;4901227;29;20115;-79
2021/09/04 08:29:10;;;;;;;108.50;49.95;;;14.30;96.70;;;;;;4900889;29;20080;-78
2021/09/04 08:31:36;;;;;;;100.25;48.53;;;14.30;96.60;;;;;;4917191;29;20055;-79
2021/09/04 08:34:01;;;;;;;102.00;49.38;;;14.30;96.50;;;;;;4885053;29;20029;-77
2021/09/04 08:36:27;;;;;;;98.07;48.67;;;14.30;96.60;;;;;;4885662;29;20036;-77
2021/09/04 08:38:54;;;;;;;109.85;51.58;;;14.50;96.50;;;;;;4884747;29;20028;-77
2021/09/04 08:41:19;;;;;;;93.40;47.78;;;14.50;96.10;;;;;;4900910;29;20028;-78
2021/09/04 08:43:45;;;;;;;93.32;45.42;;;14.40;96.00;;;;;;4884801;29;20472;-78
2021/09/04 08:46:15;;;;;;;97.28;48.33;;;14.50;96.20;;;;;;4884899;29;20036;-78
2021/09/04 08:48:43;;;;;;;104.53;50.47;;;14.40;96.00;;;;;;4900127;29;20056;-79
2021/09/04 08:51:09;;;;;;;92.13;47.22;;;14.40;96.00;;;;;;4931361;29;20183;-77
2021/09/04 08:53:34;;;;;;;95.55;47.90;;;14.40;96.20;;;;;;4885077;29;20044;-79
2021/09/04 08:56:00;;;;;;;82.50;45.67;;;14.50;96.20;;;;;;4900054;29;20387;-78
2021/09/04 08:58:26;;;;;;;89.80;47.55;;;14.60;95.90;;;;;;4899750;29;20032;-79
2021/09/04 09:00:52;;;;;;;92.60;47.67;;;14.50;95.60;;;;;;4916435;29;20039;-77
2021/09/04 09:03:25;;;;;;;87.57;46.95;;;14.40;95.70;;;;;;4900077;29;20141;-77
2021/09/04 09:05:52;;;;;;;85.88;45.60;;;14.40;95.90;;;;;;4931499;29;20514;-77
2021/09/04 09:08:23;;;;;;;93.63;48.60;;;14.60;96.00;;;;;;4899830;29;20480;-77
2021/09/04 09:10:50;;;;;;;94.03;47.65;;;14.60;95.80;;;;;;4916634;29;20024;-79
2021/09/04 09:13:17;;;;;;;93.63;48.70;;;14.60;95.70;;;;;;4930865;29;20043;-79
2021/09/04 09:15:43;;;;;;;89.90;47.95;;;14.80;95.80;;;;;;4918409;29;20040;-79
2021/09/04 09:18:17;;;;;;;87.18;45.50;;;14.80;95.60;;;;;;4888089;29;20489;-78
2021/09/04 09:20:46;;;;;;;83.10;45.65;;;14.90;95.70;;;;;;4920425;29;20372;-78
2021/09/04 09:23:18;;;;;;;85.03;46.00;;;15.10;95.50;;;;;;4903422;29;20020;-79
2021/09/04 09:25:46;;;;;;;85.57;46.50;;;15.10;95.10;;;;;;4919026;29;20039;-79
2021/09/04 09:28:23;;;;;;;86.78;47.42;;;15.10;94.80;;;;;;4934867;29;20020;-78
2021/09/04 09:30:57;;;;;;;80.53;44.42;;;15.00;94.80;;;;;;4920545;29;20028;-75
2021/09/04 09:33:24;;;;;;;;;;;15.00;95.00;;;;;;4903467;29;20028;-78
2021/09/04 09:35:52;;;;;;;87.10;45.97;;;15.10;95.10;;;;;;4903155;29;20323;-78
2021/09/04 09:38:20;;;;;;;77.10;42.80;;;15.20;95.00;;;;;;4934525;29;20127;-78
2021/09/04 09:40:46;;;;;;;79.90;43.22;;;15.20;94.60;;;;;;4920291;29;20468;-79
2021/09/04 09:43:23;;;;;;;79.60;44.78;;;15.30;94.60;;;;;;4934441;29;20035;-79
2021/09/04 09:45:55;;;;;;;76.68;44.63;;;15.30;94.40;;;;;;4934736;29;20024;-78
2021/09/04 09:48:23;;;;;;;77.13;44.08;;;15.20;94.30;;;;;;4934072;29;20111;-78
2021/09/04 09:50:50;;;;;;;77.93;44.70;;;15.30;94.50;;;;;;4934520;29;20475;-76
2021/09/04 09:53:17;;;;;;;84.60;46.53;;;15.40;94.40;;;;;;4934585;29;20028;-77
2021/09/04 09:55:45;;;;;;;83.55;48.35;;;15.40;94.20;;;;;;4937042;29;20123;-79
2021/09/04 09:58:12;;;;;;;83.97;47.42;;;15.40;94.20;;;;;;4936777;29;20020;-80
2021/09/04 10:00:39;;;;;;;73.80;42.90;;;15.40;94.10;;;;;;4920350;29;20028;-78
2021/09/04 10:03:07;;;;;;;69.70;40.50;;;15.40;94.10;;;;;;4887456;29;20032;-78
2021/09/04 10:05:34;;;;;;;72.25;41.22;;;15.60;94.00;;;;;;4903183;29;20031;-78
2021/09/04 10:08:00;;;;;;;63.88;40.17;;;15.60;93.80;;;;;;4934330;29;20067;-77
2021/09/04 10:10:31;;;;;;;70.75;42.60;;;15.50;93.60;;;;;;4934326;29;20127;-78
2021/09/04 10:12:57;;;;;;;72.88;40.95;;;15.60;93.70;;;;;;4934155;29;20035;-81
2021/09/04 10:15:28;;;;;;;70.45;41.45;;;15.50;93.50;;;;;;4886902;29;20039;-78
2021/09/04 10:17:56;;;;;;;73.68;42.40;;;15.50;93.70;;;;;;4919476;29;20333;-78
2021/09/04 10:20:24;;;;;;;70.80;39.53;;;15.60;93.60;;;;;;4919310;29;20036;-79
2021/09/04 10:22:50;;;;;;;72.53;41.92;;;15.70;93.70;;;;;;4902647;29;20043;-80
2021/09/04 10:25:18;;;;;;;74.05;43.10;;;15.70;93.70;;;;;;4918758;29;20096;-78
2021/09/04 10:27:50;;;;;;;69.18;41.25;;;15.70;93.40;;;;;;4903286;29;20543;-77
2021/09/04 10:30:34;;;;;;;70.05;41.55;;;15.80;93.50;;;;;;4902498;29;20020;-79
2021/09/04 10:33:02;;;;;;;66.72;39.55;;;15.90;93.30;;;;;;4933707;29;20063;-80
2021/09/04 10:35:48;;;;;;;66.28;40.15;;;15.90;92.90;;;;;;4919129;29;20134;-79
2021/09/04 10:38:20;;;;;;;66.82;39.88;;;15.90;93.00;;;;;;4902100;29;20025;-78
2021/09/04 10:41:13;;;;;;;70.45;41.70;;;16.10;93.00;;;;;;4902555;29;20028;-79
2021/09/04 10:43:48;;;;;;;67.65;39.35;;;16.00;92.50;;;;;;4902571;29;20047;-78
2021/09/04 10:46:15;;;;;;;64.03;38.40;;;16.00;92.70;;;;;;4933241;29;20547;-79
2021/09/04 10:48:42;;;;;;;62.28;39.08;;;16.00;92.90;;;;;;4886469;29;20039;-79
2021/09/04 10:51:11;;;;;;;68.72;40.75;;;16.20;92.60;;;;;;4933373;29;20036;-78
2021/09/04 10:53:55;;;;;;;65.95;40.22;;;16.20;92.40;;;;;;4886113;29;20475;-79
2021/09/04 10:56:23;;;;;;;65.18;38.38;;;16.20;92.50;;;;;;4901625;29;20040;-79
2021/09/04 10:58:50;;;;;;;62.03;38.70;;;16.20;92.40;;;;;;4920193;29;20055;-79
2021/09/04 11:01:27;;;;;;;71.40;42.30;;;16.20;92.50;;;;;;4922120;29;20527;-80
2021/09/04 11:03:55;;;;;;;66.65;41.03;;;16.20;92.30;;;;;;4923083;29;20060;-79
2021/09/04 11:06:23;;;;;;;62.70;40.58;;;16.40;92.30;;;;;;4919265;29;20072;-80
2021/09/04 11:08:50;;;;;;;66.43;41.60;;;16.40;92.20;;;;;;4919104;29;20024;-78
2021/09/04 11:11:26;;;;;;;64.43;40.47;;;16.60;91.80;;;;;;4902553;29;20055;-79
2021/09/04 11:13:58;;;;;;;65.53;39.75;;;16.70;91.50;;;;;;4902169;29;20076;-79
2021/09/04 11:16:32;;;;;;;62.65;39.90;;;16.80;91.30;;;;;;4933349;29;20035;-79
2021/09/04 11:19:26;;;;;;;57.88;35.85;;;16.90;90.90;;;;;;4902272;29;20024;-80
2021/09/04 11:22:01;;;;;;;62.50;37.90;;;16.90;90.70;;;;;;4914323;29;20388;-81
2021/09/04 11:24:47;;;;;;;66.85;38.47;;;17.00;90.80;;;;;;4901655;29;20060;-78
2021/09/04 11:27:16;;;;;;;62.83;39.65;;;17.10;90.50;;;;;;4932915;29;20029;-78
2021/09/04 11:29:51;;;;;;;65.50;39.20;;;17.20;90.40;;;;;;4932681;29;20055;-79
2021/09/04 11:32:20;;;;;;;63.20;39.15;;;17.20;90.10;;;;;;4919047;29;20365;-79
2021/09/04 11:34:50;;;;;;;58.97;37.00;;;17.30;90.20;;;;;;4918171;29;20031;-79
2021/09/04 11:37:20;;;;;;;58.13;39.08;;;17.50;90.00;;;;;;4916967;29;20115;-80
2021/09/04 11:39:47;;;;;;;57.05;35.58;;;17.70;89.00;;;;;;4901498;29;20028;-80
2021/09/04 11:42:18;;;;;;;59.63;38.65;;;17.80;88.40;;;;;;4900909;29;20024;-79
2021/09/04 11:44:52;;;;;;;56.17;37.80;;;17.80;87.60;;;;;;4900902;29;20055;-79
2021/09/04 11:47:18;;;;;;;56.00;35.95;;;17.90;88.10;;;;;;4885928;29;20040;-79
2021/09/04 11:49:50;;;;;;;60.00;39.88;;;18.00;88.00;;;;;;4870283;29;20475;-81
2021/09/04 11:52:34;;;;;;;60.22;39.78;;;18.20;86.70;;;;;;4932596;29;20092;-78
2021/09/04 11:55:17;;;;;;;55.63;35.83;;;18.10;86.30;;;;;;4932169;29;20023;-80
2021/09/04 11:57:50;;;;;;;53.97;34.97;;;18.30;86.30;;;;;;4932509;29;20030;-79
2021/09/04 12:00:25;;;;;;;60.67;39.90;;;18.50;86.20;;;;;;4885832;29;20064;-79
2021/09/04 12:03:05;;;;;;;54.42;35.22;;;18.60;84.60;;;;;;4900853;29;20024;-79
2021/09/04 12:05:33;;;;;;;52.20;35.97;;;18.60;85.00;;;;;;4916489;29;20035;-80
2021/09/04 12:08:10;;;;;;;58.80;38.60;;;18.80;83.70;;;;;;4932411;29;20040;-79
2021/09/04 12:10:42;;;;;;;55.28;38.58;;;18.70;83.60;;;;;;4900592;29;20020;-80
2021/09/04 12:13:19;;;;;;;56.00;36.95;;;18.50;83.50;;;;;;4932151;29;20425;-79
2021/09/04 12:15:45;;;;;;;56.55;38.65;;;18.40;84.00;;;;;;4886105;29;20036;-78
2021/09/04 12:18:11;;;;;;;59.58;38.25;;;18.70;83.90;;;;;;4900753;29;20036;-81
2021/09/04 12:20:39;;;;;;;52.25;36.25;;;18.70;83.20;;;;;;4916544;29;20048;-79
2021/09/04 12:23:31;;;;;;;51.67;36.75;;;18.70;83.90;;;;;;4900345;29;20032;-78